AFR2150 KJFK-KLAX
Flight info
| Callsign | AFR2150 |
|---|---|
| Flight time | N/A |
| Altitude | 38000 |
| Route | RBV Q430 AIR J80 MCI J24 SLN J102 RYLIE/N0469F400 J102 ALS J44 RSK J64 TBC JASSE Q90 DNERO ANJLL4 |
| Aircraft | B772/H-SDE2E3FGHIJ5LORVWXY/LB1D1 |
Departure
| Time | N/A |
|---|---|
| Airport | John F. Kennedy International Airport (KJFK) |
Arrival
| Time | 2026-04-23 01:29 |
|---|---|
| Airport | Los Angeles International Airport (KLAX) |
| Time | Latitude | Longitude | Altitude | Speed | Heading |
|---|---|---|---|---|---|
| 2026-04-22 22:46 | 39.10598 | -96.24789 | 37902 ft | 468 kts | 259° |
| 2026-04-22 22:46 | 39.10084 | -96.28875 | 37907 ft | 468 kts | 259° |
| 2026-04-22 22:47 | 39.09042 | -96.37138 | 37904 ft | 468 kts | 259° |
| 2026-04-22 22:47 | 39.07997 | -96.45367 | 37910 ft | 467 kts | 259° |
| 2026-04-22 22:48 | 39.06945 | -96.53606 | 37906 ft | 467 kts | 259° |
| 2026-04-22 22:48 | 39.05890 | -96.61820 | 37905 ft | 467 kts | 259° |
| 2026-04-22 22:49 | 39.04831 | -96.70022 | 37906 ft | 467 kts | 258° |
| 2026-04-22 22:49 | 39.03762 | -96.78256 | 37901 ft | 467 kts | 258° |
| 2026-04-22 22:50 | 39.02686 | -96.86486 | 37904 ft | 468 kts | 258° |
| 2026-04-22 22:50 | 39.01604 | -96.94720 | 37905 ft | 468 kts | 258° |
| 2026-04-22 22:51 | 39.00523 | -97.02906 | 37901 ft | 468 kts | 258° |
| 2026-04-22 22:51 | 38.99425 | -97.11163 | 37890 ft | 469 kts | 258° |
| 2026-04-22 22:52 | 38.98322 | -97.19416 | 37885 ft | 469 kts | 258° |
| 2026-04-22 22:52 | 38.97218 | -97.27625 | 37876 ft | 469 kts | 258° |
| 2026-04-22 22:53 | 38.96112 | -97.35815 | 37872 ft | 468 kts | 258° |
| 2026-04-22 22:53 | 38.94991 | -97.44064 | 37863 ft | 468 kts | 258° |
| 2026-04-22 22:54 | 38.93868 | -97.52282 | 37864 ft | 468 kts | 258° |
| 2026-04-22 22:54 | 38.92743 | -97.60469 | 37867 ft | 468 kts | 258° |
| 2026-04-22 22:55 | 38.91694 | -97.68698 | 37863 ft | 469 kts | 259° |
| 2026-04-22 22:55 | 38.90198 | -97.81089 | 37866 ft | 469 kts | 258° |
| 2026-04-22 22:56 | 38.89188 | -97.89347 | 37867 ft | 470 kts | 258° |
| 2026-04-22 22:56 | 38.88169 | -97.97613 | 37861 ft | 470 kts | 259° |
| 2026-04-22 22:57 | 38.87140 | -98.05901 | 37845 ft | 471 kts | 259° |
| 2026-04-22 22:57 | 38.86105 | -98.14181 | 37842 ft | 471 kts | 259° |
| 2026-04-22 22:58 | 38.85068 | -98.22424 | 37836 ft | 471 kts | 259° |
| 2026-04-22 22:58 | 38.84022 | -98.30690 | 37834 ft | 471 kts | 258° |
| 2026-04-22 22:59 | 38.82973 | -98.38933 | 37839 ft | 470 kts | 258° |
| 2026-04-22 22:59 | 38.81915 | -98.47199 | 37839 ft | 470 kts | 259° |
| 2026-04-22 23:00 | 38.80850 | -98.55466 | 37843 ft | 470 kts | 258° |
| 2026-04-22 23:00 | 38.79786 | -98.63683 | 37841 ft | 470 kts | 258° |
| 2026-04-22 23:01 | 38.78711 | -98.71935 | 37844 ft | 470 kts | 258° |
| 2026-04-22 23:01 | 38.77628 | -98.80204 | 37845 ft | 471 kts | 258° |
| 2026-04-22 23:02 | 38.76546 | -98.88413 | 37843 ft | 471 kts | 258° |
| 2026-04-22 23:02 | 38.75457 | -98.96632 | 37835 ft | 471 kts | 258° |
| 2026-04-22 23:03 | 38.74352 | -99.04926 | 37824 ft | 471 kts | 258° |
| 2026-04-22 23:03 | 38.73250 | -99.13150 | 37816 ft | 471 kts | 258° |
| 2026-04-22 23:04 | 38.72138 | -99.21411 | 37816 ft | 471 kts | 258° |
| 2026-04-22 23:04 | 38.71021 | -99.29655 | 37813 ft | 470 kts | 258° |
| 2026-04-22 23:05 | 38.69904 | -99.37856 | 37807 ft | 470 kts | 258° |
| 2026-04-22 23:05 | 38.68785 | -99.46022 | 37808 ft | 469 kts | 258° |
| 2026-04-22 23:06 | 38.67655 | -99.54230 | 37798 ft | 469 kts | 258° |
| 2026-04-22 23:06 | 38.66525 | -99.62392 | 37798 ft | 468 kts | 258° |
| 2026-04-22 23:07 | 38.65381 | -99.70611 | 37803 ft | 468 kts | 257° |
| 2026-04-22 23:07 | 38.64243 | -99.78746 | 37800 ft | 468 kts | 257° |
| 2026-04-22 23:08 | 38.63093 | -99.86924 | 37791 ft | 468 kts | 257° |
| 2026-04-22 23:08 | 38.61940 | -99.95074 | 37795 ft | 468 kts | 257° |
| 2026-04-22 23:09 | 38.60784 | -100.03207 | 37800 ft | 467 kts | 257° |
| 2026-04-22 23:09 | 38.59618 | -100.11375 | 37797 ft | 467 kts | 257° |
| 2026-04-22 23:10 | 38.58453 | -100.19482 | 37799 ft | 466 kts | 257° |
| 2026-04-22 23:10 | 38.57283 | -100.27589 | 37791 ft | 465 kts | 257° |
| 2026-04-22 23:11 | 38.56107 | -100.35699 | 37788 ft | 465 kts | 257° |
| 2026-04-22 23:11 | 38.54928 | -100.43779 | 37787 ft | 465 kts | 257° |
| 2026-04-22 23:12 | 38.53736 | -100.51915 | 37776 ft | 465 kts | 257° |
| 2026-04-22 23:12 | 38.52552 | -100.59950 | 37788 ft | 465 kts | 257° |
| 2026-04-22 23:13 | 38.51355 | -100.68035 | 37789 ft | 465 kts | 257° |
| 2026-04-22 23:13 | 38.50154 | -100.76114 | 37776 ft | 464 kts | 257° |
| 2026-04-22 23:14 | 38.48948 | -100.84180 | 37782 ft | 465 kts | 257° |
| 2026-04-22 23:14 | 38.47734 | -100.92257 | 37777 ft | 464 kts | 257° |
| 2026-04-22 23:15 | 38.46515 | -101.00333 | 37768 ft | 464 kts | 257° |
| 2026-04-22 23:15 | 38.45295 | -101.08374 | 37773 ft | 464 kts | 257° |
| 2026-04-22 23:16 | 38.44068 | -101.16420 | 37778 ft | 463 kts | 258° |
| 2026-04-22 23:16 | 38.42839 | -101.24443 | 37786 ft | 462 kts | 258° |
| 2026-04-22 23:17 | 38.41602 | -101.32481 | 37791 ft | 462 kts | 258° |
| 2026-04-22 23:17 | 38.40369 | -101.40456 | 37788 ft | 461 kts | 258° |
| 2026-04-22 23:18 | 38.39135 | -101.48395 | 37789 ft | 459 kts | 258° |
| 2026-04-22 23:18 | 38.37891 | -101.56364 | 37788 ft | 459 kts | 258° |
| 2026-04-22 23:19 | 38.36641 | -101.64338 | 37793 ft | 458 kts | 259° |
| 2026-04-22 23:19 | 38.35389 | -101.72279 | 37800 ft | 459 kts | 258° |
| 2026-04-22 23:20 | 38.34140 | -101.80171 | 37806 ft | 459 kts | 258° |
| 2026-04-22 23:20 | 38.32876 | -101.88113 | 37807 ft | 459 kts | 259° |
| 2026-04-22 23:21 | 38.31604 | -101.96064 | 37811 ft | 458 kts | 259° |
| 2026-04-22 23:21 | 38.30339 | -102.03943 | 37823 ft | 458 kts | 259° |
| 2026-04-22 23:22 | 38.29059 | -102.11871 | 37824 ft | 457 kts | 259° |
| 2026-04-22 23:22 | 38.27785 | -102.19730 | 37825 ft | 457 kts | 259° |
| 2026-04-22 23:23 | 38.26498 | -102.27635 | 37821 ft | 455 kts | 259° |
| 2026-04-22 23:23 | 38.25219 | -102.35452 | 37818 ft | 453 kts | 259° |
| 2026-04-22 23:24 | 38.23935 | -102.43270 | 37815 ft | 452 kts | 259° |
| 2026-04-22 23:24 | 38.22649 | -102.51064 | 37811 ft | 451 kts | 259° |
| 2026-04-22 23:25 | 38.21359 | -102.58845 | 37803 ft | 450 kts | 259° |
| 2026-04-22 23:25 | 38.20071 | -102.66582 | 37806 ft | 448 kts | 259° |
| 2026-04-22 23:26 | 38.18324 | -102.74198 | 37816 ft | 448 kts | 253° |
| 2026-04-22 23:26 | 38.16392 | -102.81746 | 37808 ft | 447 kts | 253° |
| 2026-04-22 23:27 | 38.14471 | -102.89225 | 37823 ft | 447 kts | 253° |
| 2026-04-22 23:27 | 38.12548 | -102.96695 | 37831 ft | 445 kts | 254° |
| 2026-04-22 23:28 | 38.10619 | -103.04171 | 37844 ft | 444 kts | 254° |
| 2026-04-22 23:28 | 38.08700 | -103.11581 | 37842 ft | 443 kts | 254° |
| 2026-04-22 23:29 | 38.06778 | -103.18986 | 37849 ft | 443 kts | 254° |
| 2026-04-22 23:29 | 38.04843 | -103.26414 | 37827 ft | 443 kts | 254° |
| 2026-04-22 23:30 | 38.02918 | -103.33788 | 37839 ft | 443 kts | 254° |
| 2026-04-22 23:30 | 38.00989 | -103.41151 | 37809 ft | 443 kts | 254° |
| 2026-04-22 23:31 | 37.99047 | -103.48546 | 37804 ft | 443 kts | 254° |
| 2026-04-22 23:31 | 37.97092 | -103.55966 | 37812 ft | 442 kts | 254° |
| 2026-04-22 23:32 | 37.95157 | -103.63291 | 37828 ft | 442 kts | 254° |
| 2026-04-22 23:32 | 37.93191 | -103.70708 | 37852 ft | 442 kts | 253° |
| 2026-04-22 23:33 | 37.91236 | -103.78066 | 37873 ft | 442 kts | 253° |
| 2026-04-22 23:33 | 37.89285 | -103.85385 | 37891 ft | 443 kts | 253° |
| 2026-04-22 23:34 | 37.87321 | -103.92735 | 37890 ft | 443 kts | 253° |
| 2026-04-22 23:34 | 37.85341 | -104.00122 | 37909 ft | 442 kts | 253° |
| 2026-04-22 23:35 | 37.83378 | -104.07427 | 37917 ft | 443 kts | 253° |
| 2026-04-22 23:35 | 37.81390 | -104.14801 | 37938 ft | 443 kts | 253° |
| 2026-04-22 23:36 | 37.79395 | -104.22179 | 37956 ft | 443 kts | 253° |
| 2026-04-22 23:36 | 37.77412 | -104.29494 | 37992 ft | 443 kts | 253° |
| 2026-04-22 23:37 | 37.75417 | -104.36833 | 37990 ft | 443 kts | 253° |
| 2026-04-22 23:37 | 37.73422 | -104.44151 | 38013 ft | 442 kts | 252° |
| 2026-04-22 23:38 | 37.71421 | -104.51469 | 38032 ft | 442 kts | 252° |
| 2026-04-22 23:38 | 37.69415 | -104.58784 | 38032 ft | 443 kts | 253° |
| 2026-04-22 23:39 | 37.67408 | -104.66085 | 38033 ft | 443 kts | 252° |
| 2026-04-22 23:39 | 37.65375 | -104.73460 | 38068 ft | 443 kts | 252° |
| 2026-04-22 23:40 | 37.63354 | -104.80768 | 38094 ft | 443 kts | 252° |
| 2026-04-22 23:40 | 37.61327 | -104.88079 | 38101 ft | 444 kts | 252° |
| 2026-04-22 23:41 | 37.59301 | -104.95367 | 38120 ft | 444 kts | 252° |
| 2026-04-22 23:41 | 37.57250 | -105.02727 | 38137 ft | 444 kts | 252° |
| 2026-04-22 23:42 | 37.55211 | -105.10018 | 38147 ft | 443 kts | 252° |
| 2026-04-22 23:42 | 37.53171 | -105.17296 | 38173 ft | 442 kts | 251° |
| 2026-04-22 23:43 | 37.51123 | -105.24582 | 38166 ft | 441 kts | 251° |
| 2026-04-22 23:43 | 37.49089 | -105.31797 | 38157 ft | 440 kts | 251° |
| 2026-04-22 23:44 | 37.47050 | -105.39014 | 38168 ft | 438 kts | 252° |
| 2026-04-22 23:44 | 37.45008 | -105.46218 | 38165 ft | 437 kts | 252° |
| 2026-04-22 23:45 | 37.42978 | -105.53364 | 38160 ft | 437 kts | 252° |
| 2026-04-22 23:45 | 37.40933 | -105.60542 | 38153 ft | 436 kts | 252° |
| 2026-04-22 23:46 | 37.38877 | -105.67740 | 38133 ft | 436 kts | 251° |
| 2026-04-22 23:46 | 37.36828 | -105.74893 | 38115 ft | 436 kts | 251° |
| 2026-04-22 23:47 | 37.34781 | -105.82024 | 38102 ft | 435 kts | 251° |
| 2026-04-22 23:47 | 37.32941 | -105.89231 | 38103 ft | 434 kts | 253° |
| 2026-04-22 23:48 | 37.31144 | -105.96427 | 38127 ft | 433 kts | 253° |
| 2026-04-22 23:48 | 37.29338 | -106.03595 | 38151 ft | 432 kts | 253° |
| 2026-04-22 23:49 | 37.27519 | -106.10775 | 38178 ft | 431 kts | 253° |
| 2026-04-22 23:49 | 37.25702 | -106.17913 | 38190 ft | 430 kts | 253° |
| 2026-04-22 23:50 | 37.23878 | -106.25058 | 38201 ft | 430 kts | 253° |
| 2026-04-22 23:50 | 37.22065 | -106.32138 | 38188 ft | 429 kts | 253° |
| 2026-04-22 23:51 | 37.20240 | -106.39238 | 38188 ft | 429 kts | 253° |
| 2026-04-22 23:51 | 37.18406 | -106.46356 | 38190 ft | 428 kts | 253° |
| 2026-04-22 23:52 | 37.16587 | -106.53396 | 38193 ft | 428 kts | 253° |
| 2026-04-22 23:52 | 37.14746 | -106.60500 | 38177 ft | 428 kts | 253° |
| 2026-04-22 23:53 | 37.12915 | -106.67548 | 38211 ft | 427 kts | 252° |
| 2026-04-22 23:53 | 37.11078 | -106.74598 | 38206 ft | 427 kts | 252° |
| 2026-04-22 23:54 | 37.09238 | -106.81640 | 38199 ft | 426 kts | 253° |
| 2026-04-22 23:54 | 37.07406 | -106.88630 | 38204 ft | 425 kts | 253° |
| 2026-04-22 23:55 | 37.05567 | -106.95631 | 38198 ft | 425 kts | 252° |
| 2026-04-22 23:55 | 37.03711 | -107.02676 | 38187 ft | 424 kts | 253° |
| 2026-04-22 23:56 | 37.01870 | -107.09645 | 38180 ft | 424 kts | 252° |
| 2026-04-22 23:56 | 37.00028 | -107.16603 | 38165 ft | 423 kts | 252° |
| 2026-04-22 23:57 | 36.98175 | -107.23579 | 38140 ft | 421 kts | 252° |
| 2026-04-22 23:57 | 36.96331 | -107.30504 | 38141 ft | 422 kts | 252° |
| 2026-04-22 23:58 | 36.94470 | -107.37476 | 38144 ft | 424 kts | 253° |
| 2026-04-22 23:58 | 36.92611 | -107.44416 | 37943 ft | 423 kts | 252° |
| 2026-04-22 23:59 | 36.91683 | -107.47875 | 38149 ft | 420 kts | 253° |
| 2026-04-22 23:59 | 36.90748 | -107.51356 | 38132 ft | 421 kts | 253° |
| 2026-04-22 23:59 | 36.88874 | -107.58321 | 38130 ft | 422 kts | 253° |
| 2026-04-23 00:00 | 36.86069 | -107.68708 | 38146 ft | 423 kts | 252° |
| 2026-04-23 00:01 | 36.84193 | -107.75633 | 38130 ft | 423 kts | 252° |
| 2026-04-23 00:01 | 36.82301 | -107.82597 | 38123 ft | 423 kts | 252° |
| 2026-04-23 00:02 | 36.80421 | -107.89499 | 38098 ft | 423 kts | 252° |
| 2026-04-23 00:02 | 36.78521 | -107.96458 | 38077 ft | 423 kts | 252° |
| 2026-04-23 00:03 | 36.76627 | -108.03377 | 38065 ft | 423 kts | 252° |
| 2026-04-23 00:03 | 36.74720 | -108.10324 | 38055 ft | 423 kts | 252° |
| 2026-04-23 00:04 | 36.73362 | -108.17255 | 38053 ft | 422 kts | 258° |
| 2026-04-23 00:04 | 36.72115 | -108.24383 | 38036 ft | 422 kts | 258° |
| 2026-04-23 00:05 | 36.70830 | -108.31514 | 38031 ft | 422 kts | 257° |
| 2026-04-23 00:05 | 36.69536 | -108.38578 | 38043 ft | 422 kts | 258° |
| 2026-04-23 00:06 | 36.68222 | -108.45688 | 38039 ft | 421 kts | 257° |
| 2026-04-23 00:06 | 36.66900 | -108.52792 | 38050 ft | 421 kts | 258° |
| 2026-04-23 00:07 | 36.65577 | -108.59863 | 38071 ft | 421 kts | 257° |
| 2026-04-23 00:07 | 36.64246 | -108.66950 | 38091 ft | 421 kts | 257° |
| 2026-04-23 00:08 | 36.62908 | -108.74049 | 38092 ft | 422 kts | 257° |
| 2026-04-23 00:08 | 36.61568 | -108.81130 | 38103 ft | 423 kts | 257° |
| 2026-04-23 00:09 | 36.60219 | -108.88232 | 38110 ft | 423 kts | 257° |
| 2026-04-23 00:09 | 36.58862 | -108.95353 | 38115 ft | 424 kts | 257° |
| 2026-04-23 00:10 | 36.57507 | -109.02438 | 38151 ft | 424 kts | 257° |
| 2026-04-23 00:10 | 36.56142 | -109.09550 | 38129 ft | 424 kts | 257° |
| 2026-04-23 00:11 | 36.54768 | -109.16685 | 38127 ft | 424 kts | 257° |
| 2026-04-23 00:11 | 36.53402 | -109.23759 | 38125 ft | 424 kts | 257° |
| 2026-04-23 00:12 | 36.52022 | -109.30875 | 38127 ft | 423 kts | 257° |
| 2026-04-23 00:12 | 36.50648 | -109.37936 | 38109 ft | 422 kts | 257° |
| 2026-04-23 00:13 | 36.49265 | -109.45024 | 38087 ft | 422 kts | 257° |
| 2026-04-23 00:13 | 36.47892 | -109.52033 | 38068 ft | 421 kts | 257° |
| 2026-04-23 00:14 | 36.46501 | -109.59110 | 38076 ft | 420 kts | 257° |
| 2026-04-23 00:14 | 36.45124 | -109.66090 | 38091 ft | 419 kts | 257° |
| 2026-04-23 00:15 | 36.43735 | -109.73113 | 38105 ft | 419 kts | 257° |
| 2026-04-23 00:15 | 36.42341 | -109.80135 | 38093 ft | 420 kts | 257° |
| 2026-04-23 00:16 | 36.40947 | -109.87138 | 38109 ft | 419 kts | 257° |
| 2026-04-23 00:16 | 36.39545 | -109.94152 | 38105 ft | 418 kts | 257° |
| 2026-04-23 00:17 | 36.38150 | -110.01114 | 38107 ft | 419 kts | 257° |
| 2026-04-23 00:17 | 36.36742 | -110.08114 | 38101 ft | 418 kts | 257° |
| 2026-04-23 00:18 | 36.35337 | -110.15076 | 38105 ft | 417 kts | 257° |
| 2026-04-23 00:18 | 36.33928 | -110.22040 | 38112 ft | 417 kts | 257° |
| 2026-04-23 00:19 | 36.32517 | -110.28988 | 38111 ft | 416 kts | 257° |
| 2026-04-23 00:19 | 36.31108 | -110.35905 | 38098 ft | 416 kts | 257° |
| 2026-04-23 00:20 | 36.29684 | -110.42870 | 38094 ft | 415 kts | 257° |
| 2026-04-23 00:20 | 36.28272 | -110.49757 | 38093 ft | 415 kts | 257° |
| 2026-04-23 00:21 | 36.26852 | -110.56655 | 38089 ft | 414 kts | 257° |
| 2026-04-23 00:21 | 36.25429 | -110.63551 | 38084 ft | 414 kts | 257° |
| 2026-04-23 00:22 | 36.24010 | -110.70403 | 38103 ft | 414 kts | 257° |
| 2026-04-23 00:22 | 36.22643 | -110.76987 | 38088 ft | 414 kts | 256° |
| 2026-04-23 00:23 | 36.21211 | -110.83861 | 38090 ft | 414 kts | 257° |
| 2026-04-23 00:23 | 36.19772 | -110.90745 | 38098 ft | 414 kts | 257° |
| 2026-04-23 00:24 | 36.18338 | -110.97588 | 38084 ft | 413 kts | 257° |
| 2026-04-23 00:24 | 36.16897 | -111.04443 | 38078 ft | 413 kts | 257° |
| 2026-04-23 00:25 | 36.15453 | -111.11289 | 38076 ft | 413 kts | 257° |
| 2026-04-23 00:25 | 36.14003 | -111.18143 | 38073 ft | 413 kts | 257° |
| 2026-04-23 00:26 | 36.12549 | -111.24998 | 38067 ft | 412 kts | 257° |
| 2026-04-23 00:26 | 36.11669 | -111.31916 | 38069 ft | 410 kts | 264° |
| 2026-04-23 00:27 | 36.11040 | -111.38896 | 38072 ft | 410 kts | 264° |
| 2026-04-23 00:27 | 36.10403 | -111.45882 | 38061 ft | 410 kts | 264° |
| 2026-04-23 00:28 | 36.09760 | -111.52872 | 38060 ft | 409 kts | 264° |
| 2026-04-23 00:28 | 36.09117 | -111.59809 | 38082 ft | 409 kts | 264° |
| 2026-04-23 00:29 | 36.08467 | -111.66761 | 38099 ft | 408 kts | 263° |
| 2026-04-23 00:29 | 36.07813 | -111.73720 | 38109 ft | 408 kts | 264° |
| 2026-04-23 00:30 | 36.07056 | -111.80498 | 38110 ft | 408 kts | 258° |
| 2026-04-23 00:30 | 36.05232 | -111.87120 | 38109 ft | 411 kts | 251° |
| 2026-04-23 00:31 | 36.03151 | -111.93649 | 38108 ft | 411 kts | 251° |
| 2026-04-23 00:31 | 36.01047 | -112.00226 | 38112 ft | 411 kts | 251° |
| 2026-04-23 00:32 | 35.98956 | -112.06750 | 38110 ft | 411 kts | 251° |
| 2026-04-23 00:32 | 35.96859 | -112.13276 | 38135 ft | 410 kts | 251° |
| 2026-04-23 00:33 | 35.94761 | -112.19792 | 38131 ft | 410 kts | 252° |
| 2026-04-23 00:33 | 35.92655 | -112.26318 | 38105 ft | 410 kts | 251° |
| 2026-04-23 00:34 | 35.90546 | -112.32838 | 38114 ft | 410 kts | 252° |
| 2026-04-23 00:34 | 35.88427 | -112.39375 | 38096 ft | 410 kts | 252° |
| 2026-04-23 00:35 | 35.86321 | -112.45856 | 38085 ft | 410 kts | 251° |
| 2026-04-23 00:35 | 35.84197 | -112.52382 | 38084 ft | 410 kts | 252° |
| 2026-04-23 00:36 | 35.82084 | -112.58857 | 38096 ft | 410 kts | 252° |
| 2026-04-23 00:36 | 35.79953 | -112.65372 | 38107 ft | 410 kts | 251° |
| 2026-04-23 00:37 | 35.77829 | -112.71853 | 38121 ft | 410 kts | 251° |
| 2026-04-23 00:37 | 35.75704 | -112.78326 | 38122 ft | 411 kts | 251° |
| 2026-04-23 00:38 | 35.73563 | -112.84828 | 38118 ft | 411 kts | 251° |
| 2026-04-23 00:38 | 35.71415 | -112.91341 | 38120 ft | 411 kts | 251° |
| 2026-04-23 00:39 | 35.69262 | -112.97855 | 38115 ft | 411 kts | 251° |
| 2026-04-23 00:39 | 35.67112 | -113.04346 | 38108 ft | 411 kts | 251° |
| 2026-04-23 00:40 | 35.64956 | -113.10836 | 38106 ft | 411 kts | 251° |
| 2026-04-23 00:40 | 35.62811 | -113.17283 | 38102 ft | 410 kts | 251° |
| 2026-04-23 00:41 | 35.60641 | -113.23790 | 38101 ft | 410 kts | 252° |
| 2026-04-23 00:41 | 35.58490 | -113.30228 | 38088 ft | 409 kts | 251° |
| 2026-04-23 00:42 | 35.56324 | -113.36694 | 38081 ft | 409 kts | 252° |
| 2026-04-23 00:42 | 35.54170 | -113.43113 | 38070 ft | 408 kts | 251° |
| 2026-04-23 00:43 | 35.52016 | -113.49515 | 38071 ft | 408 kts | 252° |
| 2026-04-23 00:43 | 35.49855 | -113.55928 | 38069 ft | 408 kts | 251° |
| 2026-04-23 00:44 | 35.47686 | -113.62350 | 38057 ft | 407 kts | 252° |
| 2026-04-23 00:44 | 35.45525 | -113.68735 | 38078 ft | 407 kts | 251° |
| 2026-04-23 00:45 | 35.43442 | -113.74876 | 38070 ft | 407 kts | 251° |
| 2026-04-23 00:45 | 35.41273 | -113.81258 | 38059 ft | 408 kts | 251° |
| 2026-04-23 00:46 | 35.39097 | -113.87651 | 38054 ft | 408 kts | 251° |
| 2026-04-23 00:46 | 35.36907 | -113.94064 | 38043 ft | 408 kts | 251° |
| 2026-04-23 00:47 | 35.34720 | -114.00462 | 38037 ft | 408 kts | 251° |
| 2026-04-23 00:47 | 35.32532 | -114.06844 | 38026 ft | 407 kts | 251° |
| 2026-04-23 00:48 | 35.30350 | -114.13200 | 38024 ft | 407 kts | 251° |
| 2026-04-23 00:48 | 35.28162 | -114.19557 | 38017 ft | 407 kts | 251° |
| 2026-04-23 00:49 | 35.25961 | -114.25940 | 38018 ft | 406 kts | 251° |
| 2026-04-23 00:49 | 35.23763 | -114.32301 | 38004 ft | 406 kts | 251° |
| 2026-04-23 00:50 | 35.21570 | -114.38634 | 37989 ft | 406 kts | 251° |
| 2026-04-23 00:50 | 35.19373 | -114.44967 | 37964 ft | 406 kts | 251° |
| 2026-04-23 00:51 | 35.17165 | -114.51316 | 37954 ft | 405 kts | 251° |
| 2026-04-23 00:51 | 35.14974 | -114.57606 | 37965 ft | 404 kts | 251° |
| 2026-04-23 00:52 | 35.12768 | -114.63930 | 37972 ft | 404 kts | 251° |
| 2026-04-23 00:52 | 35.10575 | -114.70249 | 38012 ft | 405 kts | 251° |
| 2026-04-23 00:53 | 35.08387 | -114.76543 | 38023 ft | 405 kts | 251° |
| 2026-04-23 00:53 | 35.06196 | -114.82826 | 38012 ft | 402 kts | 251° |
| 2026-04-23 00:54 | 35.04010 | -114.89085 | 38013 ft | 403 kts | 251° |
| 2026-04-23 00:54 | 35.01562 | -114.95258 | 38007 ft | 406 kts | 247° |
| 2026-04-23 00:55 | 34.98898 | -115.01290 | 38047 ft | 408 kts | 247° |
| 2026-04-23 00:55 | 34.96233 | -115.07375 | 38007 ft | 407 kts | 247° |
| 2026-04-23 00:56 | 34.93582 | -115.13446 | 37995 ft | 406 kts | 247° |
| 2026-04-23 00:56 | 34.90928 | -115.19530 | 37996 ft | 406 kts | 247° |
| 2026-04-23 00:57 | 34.88285 | -115.25584 | 37988 ft | 406 kts | 248° |
| 2026-04-23 00:57 | 34.85635 | -115.31650 | 37994 ft | 406 kts | 246° |
| 2026-04-23 00:58 | 34.83002 | -115.37666 | 37990 ft | 405 kts | 246° |
| 2026-04-23 00:58 | 34.80342 | -115.43733 | 37983 ft | 405 kts | 247° |
| 2026-04-23 00:59 | 34.77852 | -115.49806 | 37987 ft | 403 kts | 251° |
| 2026-04-23 00:59 | 34.75607 | -115.56044 | 37981 ft | 403 kts | 250° |
| 2026-04-23 01:00 | 34.73338 | -115.62276 | 37986 ft | 403 kts | 250° |
| 2026-04-23 01:00 | 34.71066 | -115.68465 | 38009 ft | 403 kts | 250° |
| 2026-04-23 01:01 | 34.68760 | -115.74720 | 38006 ft | 404 kts | 250° |
| 2026-04-23 01:01 | 34.66463 | -115.80930 | 38004 ft | 405 kts | 249° |
| 2026-04-23 01:02 | 34.64147 | -115.87174 | 37992 ft | 405 kts | 249° |
| 2026-04-23 01:02 | 34.61843 | -115.93407 | 37982 ft | 405 kts | 250° |
| 2026-04-23 01:03 | 34.59544 | -115.99648 | 37983 ft | 405 kts | 250° |
| 2026-04-23 01:03 | 34.57250 | -116.05867 | 37487 ft | 410 kts | 250° |
| 2026-04-23 01:03 | 34.56081 | -116.09034 | 36583 ft | 416 kts | 250° |
| 2026-04-23 01:04 | 34.54901 | -116.12219 | 36232 ft | 410 kts | 250° |
| 2026-04-23 01:04 | 34.51471 | -116.21462 | 36246 ft | 404 kts | 250° |
| 2026-04-23 01:05 | 34.50313 | -116.24584 | 35970 ft | 413 kts | 249° |
| 2026-04-23 01:05 | 34.49121 | -116.27795 | 35350 ft | 423 kts | 249° |
| 2026-04-23 01:05 | 34.47935 | -116.30979 | 34753 ft | 428 kts | 249° |
| 2026-04-23 01:05 | 34.46711 | -116.34264 | 34139 ft | 433 kts | 249° |
| 2026-04-23 01:06 | 34.45468 | -116.37594 | 33538 ft | 437 kts | 250° |
| 2026-04-23 01:06 | 34.44206 | -116.40975 | 32956 ft | 441 kts | 249° |
| 2026-04-23 01:06 | 34.42954 | -116.44324 | 32393 ft | 445 kts | 249° |
| 2026-04-23 01:06 | 34.41662 | -116.47777 | 31781 ft | 448 kts | 249° |
| 2026-04-23 01:07 | 34.40326 | -116.51147 | 31214 ft | 450 kts | 247° |
| 2026-04-23 01:07 | 34.38916 | -116.54544 | 30616 ft | 452 kts | 247° |
| 2026-04-23 01:07 | 34.37499 | -116.57957 | 30040 ft | 451 kts | 247° |
| 2026-04-23 01:07 | 34.36093 | -116.61345 | 29490 ft | 452 kts | 247° |
| 2026-04-23 01:08 | 34.34690 | -116.64732 | 28994 ft | 452 kts | 246° |
| 2026-04-23 01:08 | 34.33305 | -116.68068 | 28541 ft | 435 kts | 246° |
| 2026-04-23 01:08 | 34.32010 | -116.71255 | 28078 ft | 410 kts | 247° |
| 2026-04-23 01:08 | 34.30788 | -116.74290 | 27677 ft | 387 kts | 248° |
| 2026-04-23 01:09 | 34.29659 | -116.77098 | 27391 ft | 365 kts | 248° |
| 2026-04-23 01:09 | 34.28566 | -116.79815 | 27036 ft | 355 kts | 248° |
| 2026-04-23 01:09 | 34.27487 | -116.82503 | 26467 ft | 354 kts | 248° |
| 2026-04-23 01:09 | 34.26418 | -116.85164 | 25839 ft | 354 kts | 248° |
| 2026-04-23 01:10 | 34.25347 | -116.87822 | 25252 ft | 353 kts | 248° |
| 2026-04-23 01:10 | 34.24269 | -116.90489 | 24787 ft | 349 kts | 248° |
| 2026-04-23 01:10 | 34.23223 | -116.93078 | 24329 ft | 346 kts | 248° |
| 2026-04-23 01:10 | 34.22169 | -116.95683 | 23849 ft | 342 kts | 249° |
| 2026-04-23 01:11 | 34.21155 | -116.98275 | 23295 ft | 339 kts | 252° |
| 2026-04-23 01:11 | 34.20402 | -117.00905 | 22795 ft | 336 kts | 255° |
| 2026-04-23 01:11 | 34.19674 | -117.03609 | 22146 ft | 338 kts | 256° |
| 2026-04-23 01:11 | 34.18947 | -117.06317 | 21083 ft | 351 kts | 255° |
| 2026-04-23 01:12 | 34.18178 | -117.09172 | 19915 ft | 365 kts | 255° |
| 2026-04-23 01:12 | 34.17388 | -117.12087 | 19146 ft | 366 kts | 255° |
| 2026-04-23 01:12 | 34.16607 | -117.14963 | 18718 ft | 358 kts | 255° |
| 2026-04-23 01:12 | 34.15842 | -117.17754 | 18263 ft | 352 kts | 254° |
| 2026-04-23 01:13 | 34.15072 | -117.20553 | 17630 ft | 352 kts | 255° |
| 2026-04-23 01:13 | 34.14305 | -117.23340 | 16984 ft | 351 kts | 254° |
| 2026-04-23 01:13 | 34.13537 | -117.26129 | 16345 ft | 351 kts | 255° |
| 2026-04-23 01:13 | 34.12774 | -117.28895 | 15788 ft | 348 kts | 254° |
| 2026-04-23 01:14 | 34.12011 | -117.31658 | 15283 ft | 342 kts | 255° |
| 2026-04-23 01:14 | 34.11275 | -117.34318 | 14842 ft | 324 kts | 255° |
| 2026-04-23 01:14 | 34.10586 | -117.36806 | 14503 ft | 306 kts | 255° |
| 2026-04-23 01:14 | 34.09954 | -117.39220 | 14212 ft | 298 kts | 256° |
| 2026-04-23 01:15 | 34.09374 | -117.41591 | 13776 ft | 298 kts | 257° |
| 2026-04-23 01:15 | 34.08785 | -117.43983 | 13315 ft | 298 kts | 256° |
| 2026-04-23 01:15 | 34.08189 | -117.46374 | 12878 ft | 298 kts | 257° |
| 2026-04-23 01:15 | 34.07595 | -117.48745 | 12467 ft | 296 kts | 257° |
| 2026-04-23 01:16 | 34.07000 | -117.51111 | 12025 ft | 296 kts | 256° |
| 2026-04-23 01:16 | 34.06399 | -117.53464 | 11661 ft | 294 kts | 256° |
| 2026-04-23 01:16 | 34.05796 | -117.55821 | 11378 ft | 288 kts | 256° |
| 2026-04-23 01:16 | 34.05215 | -117.58085 | 11159 ft | 277 kts | 256° |
| 2026-04-23 01:17 | 34.04665 | -117.60233 | 10938 ft | 263 kts | 256° |
| 2026-04-23 01:17 | 34.04131 | -117.62321 | 10793 ft | 258 kts | 256° |
| 2026-04-23 01:17 | 34.03600 | -117.64398 | 10558 ft | 259 kts | 256° |
| 2026-04-23 01:17 | 34.03079 | -117.66433 | 10349 ft | 256 kts | 256° |
| 2026-04-23 01:18 | 34.02554 | -117.68479 | 10146 ft | 257 kts | 256° |
| 2026-04-23 01:18 | 34.02135 | -117.70563 | 9929 ft | 255 kts | 264° |
| 2026-04-23 01:18 | 34.01915 | -117.72705 | 9630 ft | 257 kts | 265° |
| 2026-04-23 01:18 | 34.01706 | -117.74821 | 9312 ft | 257 kts | 265° |
| 2026-04-23 01:19 | 34.01481 | -117.76910 | 9014 ft | 256 kts | 265° |
| 2026-04-23 01:19 | 34.01256 | -117.79064 | 8710 ft | 255 kts | 265° |
| 2026-04-23 01:19 | 34.01039 | -117.81190 | 8414 ft | 255 kts | 265° |
| 2026-04-23 01:19 | 34.00827 | -117.83300 | 8121 ft | 255 kts | 265° |
| 2026-04-23 01:20 | 34.00614 | -117.85431 | 7823 ft | 255 kts | 265° |
| 2026-04-23 01:20 | 34.00404 | -117.87561 | 7524 ft | 256 kts | 265° |
| 2026-04-23 01:20 | 34.00193 | -117.89693 | 7225 ft | 257 kts | 265° |
| 2026-04-23 01:20 | 33.99981 | -117.91840 | 6925 ft | 257 kts | 265° |
| 2026-04-23 01:21 | 33.99774 | -117.93956 | 6652 ft | 256 kts | 265° |
| 2026-04-23 01:21 | 33.99565 | -117.96086 | 6380 ft | 257 kts | 265° |
| 2026-04-23 01:21 | 33.99356 | -117.98227 | 6097 ft | 257 kts | 265° |
| 2026-04-23 01:21 | 33.99149 | -118.00358 | 5831 ft | 256 kts | 265° |
| 2026-04-23 01:22 | 33.98943 | -118.02492 | 5574 ft | 258 kts | 265° |
| 2026-04-23 01:22 | 33.98733 | -118.04646 | 5133 ft | 262 kts | 265° |
| 2026-04-23 01:22 | 33.98518 | -118.06808 | 4836 ft | 258 kts | 265° |
| 2026-04-23 01:22 | 33.98314 | -118.08904 | 4779 ft | 245 kts | 265° |
| 2026-04-23 01:23 | 33.98131 | -118.10896 | 4723 ft | 233 kts | 266° |
| 2026-04-23 01:23 | 33.97961 | -118.12798 | 4668 ft | 219 kts | 266° |
| 2026-04-23 01:23 | 33.97796 | -118.14613 | 4338 ft | 218 kts | 266° |
| 2026-04-23 01:23 | 33.97623 | -118.16414 | 3981 ft | 218 kts | 265° |
| 2026-04-23 01:24 | 33.97445 | -118.18211 | 3678 ft | 213 kts | 264° |
| 2026-04-23 01:24 | 33.97271 | -118.19960 | 3391 ft | 206 kts | 264° |
| 2026-04-23 01:24 | 33.97101 | -118.21658 | 3131 ft | 199 kts | 264° |
| 2026-04-23 01:24 | 33.96945 | -118.23214 | 2886 ft | 178 kts | 264° |
| 2026-04-23 01:25 | 33.96804 | -118.24635 | 2681 ft | 164 kts | 264° |
| 2026-04-23 01:25 | 33.96673 | -118.25929 | 2482 ft | 152 kts | 264° |
| 2026-04-23 01:25 | 33.96545 | -118.27185 | 2288 ft | 148 kts | 264° |
| 2026-04-23 01:25 | 33.96419 | -118.28419 | 2092 ft | 147 kts | 263° |
| 2026-04-23 01:26 | 33.96296 | -118.29622 | 1896 ft | 146 kts | 263° |
| 2026-04-23 01:26 | 33.96171 | -118.30834 | 1696 ft | 144 kts | 263° |
| 2026-04-23 01:26 | 33.96049 | -118.32027 | 1498 ft | 142 kts | 263° |
| 2026-04-23 01:26 | 33.95929 | -118.33209 | 1302 ft | 142 kts | 263° |
| 2026-04-23 01:27 | 33.95808 | -118.34380 | 1110 ft | 142 kts | 263° |
| 2026-04-23 01:27 | 33.95688 | -118.35551 | 921 ft | 139 kts | 262° |
| 2026-04-23 01:27 | 33.95562 | -118.36717 | 724 ft | 142 kts | 261° |
| 2026-04-23 01:27 | 33.95441 | -118.37893 | 516 ft | 141 kts | 262° |
| 2026-04-23 01:28 | 33.95330 | -118.39054 | 337 ft | 138 kts | 262° |
| 2026-04-23 01:28 | 33.95213 | -118.40200 | 165 ft | 137 kts | 262° |
| 2026-04-23 01:28 | 33.95101 | -118.41251 | 130 ft | 105 kts | 263° |
| 2026-04-23 01:28 | 33.95036 | -118.41901 | 129 ft | 53 kts | 264° |
| 2026-04-23 01:29 | 33.95000 | -118.42220 | 127 ft | 27 kts | 255° |
| 2026-04-23 01:29 | 33.94949 | -118.42353 | 125 ft | 7 kts | 236° |
| 2026-04-23 01:29 | 33.94916 | -118.42406 | 124 ft | 6 kts | 230° |
| 2026-04-23 01:29 | 33.94897 | -118.42431 | 123 ft | 0 kts | 228° |
| 2026-04-23 01:30 | 33.94895 | -118.42434 | 123 ft | 2 kts | 228° |
| 2026-04-23 01:30 | 33.94877 | -118.42455 | 123 ft | 0 kts | 223° |
| 2026-04-23 01:30 | 33.94861 | -118.42472 | 123 ft | 7 kts | 216° |
| 2026-04-23 01:30 | 33.94776 | -118.42488 | 122 ft | 17 kts | 176° |
| 2026-04-23 01:31 | 33.94693 | -118.42475 | 121 ft | 8 kts | 158° |
| 2026-04-23 01:31 | 33.94669 | -118.42406 | 122 ft | 11 kts | 90° |
| 2026-04-23 01:31 | 33.94678 | -118.42298 | 123 ft | 15 kts | 83° |
| 2026-04-23 01:31 | 33.94693 | -118.42151 | 124 ft | 19 kts | 83° |
| 2026-04-23 01:32 | 33.94711 | -118.41978 | 127 ft | 23 kts | 83° |
| 2026-04-23 01:32 | 33.94732 | -118.41766 | 127 ft | 28 kts | 83° |
| 2026-04-23 01:32 | 33.94753 | -118.41557 | 127 ft | 15 kts | 83° |
| 2026-04-23 01:32 | 33.94773 | -118.41419 | 129 ft | 18 kts | 71° |
| 2026-04-23 01:33 | 33.94785 | -118.41339 | 129 ft | 8 kts | 110° |
| 2026-04-23 01:33 | 33.94727 | -118.41293 | 129 ft | 12 kts | 168° |
| 2026-04-23 01:33 | 33.94622 | -118.41275 | 127 ft | 17 kts | 173° |
| 2026-04-23 01:33 | 33.94513 | -118.41259 | 127 ft | 16 kts | 173° |
| 2026-04-23 01:34 | 33.94400 | -118.41242 | 127 ft | 16 kts | 173° |
| 2026-04-23 01:34 | 33.94314 | -118.41231 | 127 ft | 11 kts | 174° |
| 2026-04-23 01:34 | 33.94256 | -118.41222 | 128 ft | 8 kts | 172° |
| 2026-04-23 01:34 | 33.94196 | -118.41212 | 129 ft | 5 kts | 173° |
| 2026-04-23 01:35 | 33.94167 | -118.41196 | 129 ft | 4 kts | 105° |
| 2026-04-23 01:35 | 33.94172 | -118.41154 | 130 ft | 6 kts | 82° |
| 2026-04-23 01:35 | 33.94177 | -118.41104 | 130 ft | 2 kts | 83° |
| 2026-04-23 01:35 | 33.94178 | -118.41099 | 130 ft | 0 kts | 83° |